Skytop, Pennsylvania
Current Conditions -  °F | °C
As of 12:53 AM on Thursday 23 Oct 2014 (Local Time) from KMPO Reporting Station
Light Rain Light Rain  
Wind Chill: 38°   Ceiling: 1300
Heat Index: 45°   Visibility: 7mi
Dew Point: 42°   Wind: 17mph
Humidity: 90%   Direction: 350°N
Pressure: 29.82"   Gusts: 30mph
Location:  41.23°N, 75.24°W
Report Text: KMPO 230453Z AUTO 35015G26KT 7SM -RA FEW010 BKN013 OVC050 07/06 A2982 RMK AO2 PK WND 35027/0359 SLP103 T00720056 401000072 TSNO PNO $
Loading
Personal Weather Stations






























Interactive Weather Map
Tropical Storm Tracking
New forecast layout! Learn more

10-Day Weather Forecast

Advertisements
Track Severe Weather on mobile